Pagrindinis puslapis
METAR-TAF:

METAR-TAF

Oro uostai :

Ilas, Peru

platuma: 17-41-45S, ilguma: 071-20-35W, Aukštis: 22 m

Dabartinis oras

Ataskaita buvo paskelbta 54 minutes, ne 14:00 UTC
Vėjas 9 kt iš Pietų/Pietryčių
Temperatūra 17°C
Drėgmė 77%
Slėgis 1017 hPa
Matomumas 10 km arba daugiau
Apsiniaukę ne aukštis 2000 ft

METAR: SPLO 201400Z 15009KT 9999 OVC020 17/13 Q1017 RMK PP000

Laikas: 09:54 (14:54 UTC)

Prognozė

Ataskaita buvo paskelbta 3 valandos ir 39 minutes, ne 11:15 UTC
Prognozė galioja nuo 20 metu 12 UTC su 21 metu 12 UTC
Vėjas 6 kt iš Pietryčių
Matomumas 10 km arba daugiau
Apsiniaukę ne aukštis 2500 ft
Nuo 20 metu 1800 UTC
Vėjas 8 kt iš Pietų
Matomumas 10 km arba daugiau
Su prošvaistėmis ne aukštis 3000 ft

TAF: SPLO 201115Z 2012/2112 14006KT 9999 OVC025 TX18/2019Z TN14/2111Z FM201800 18008KT 9999 BKN030

Orai ataskaitas ir orų prognozės (METAR, TAF).

turimą stotys yra geltonos ir raudonos taškus žemėlapyje.

Perkelti pele per norėdami pamatyti stoties vardą.

Tada spustelėkite, norėdami matyti oro stebėjimo ir prognozės.

Norėdami pakeisti žemėlapį: spustelėkite ant žalios mygtukų su juodo kryžiaus žemyn,; žalią mygtuką su brūkšneliu, jei norite nutolinti; arba žalių rodyklių gretimoms žemėlapius.


METAR-TAF: